Airfield :
LOGIN :

Register | Disclaimer

   EN    FR    IT 

 










Legend :    VFR   Marginal VFR   IFR   Intensive IFR   Very Intensive IFR
Visi :
Ceiling :
>= 8 km
>= 3000ft
5 to 8 km
1000 to 3000 ft
1500m to 5 km
500 to 1000 ft
800 to 1500m
200 to 500 ft
< 800m
< 200 ft
Symbols :   Thunderstorms  Fog  Heavy snow  Heavy precipitations  Wind > 20 kt
SIGMETs :     Misc.  Thunderstorms  Icing  Turbulence  Mountain Waves  Volcanic Ashes






- Airport Elevation : 1460 ft


LSMA - Alpnach

CURRENT METAR :
  • 290650Z AUTO 07006KT 030V110 9999NDV BKN082 12/05 Q1011 RMK

EXPIRED METARs :
  • 290620Z AUTO 04005KT 340V080 9999NDV OVC084 12/04 Q1011 RMK
  • 290550Z AUTO 04006KT 350V100 9999NDV FEW050 BKN087 12/04 Q1011 RMK
  • 290520Z AUTO 07004KT 360V110 9999NDV SCT086 12/04 Q1011 RMK
  • 290450Z AUTO VRB03KT 9999NDV BKN084 12/04 Q1011 RMK

Expired Forecast.



MET'MAP, your aeronautical weather chart ! - Copyright ORBIFLY December 2007 - Disclaimer

ORBIFLY MET'MAP TEAM :

Programming & Development : Alexandra Zaïnal
Original concept : Baudouin d'Aumeries
Technical & hardware support : Manuel Goepfert
Assistance : Marc-Olivier Méhu

Contact : metmap@orbifly.com




SOURCES & CREDITS :

   NOAA